Clayhatchee, Alabama
Current Conditions -  °F | °C
As of 5:58 PM on Saturday 22 Nov 2014 (Local Time) from KOZR Reporting Station
Drizzle Drizzle  
Wind Chill: 59°   Ceiling: 900
Heat Index: 59°   Visibility: 10mi
Dew Point: 57°   Wind: 10mph
Humidity: 95%   Direction: 70°ENE
Pressure: 30.15"   Gusts: NA
Location:  31.2347°N, 85.7586°W
Report Text: KOZR 222358Z AUTO 07009KT 10SM -DZ OVC009 15/14 A3015 RMK AO2 SLP212 P0000 60005 T01490141 10189 20146 57014
Loading
Personal Weather Stations






























Interactive Weather Map New forecast layout! Learn more

10-Day Weather Forecast

Advertisements
Track Severe Weather on mobile